Time;durP1;ratioP1;P1;durP2;ratioP2;P2;SDS_P1;SDS_P2;PMS_P1;PMS_P2;Temp;Humidity;BMP_temperature;BMP_pressure;BME280_temperature;BME280_humidity;BME280_pressure;Samples;Min_cycle;Max_cycle;Signal;HPM_P1;HPM_P2
2022/02/19 11:46:34;;;;;;;7.80;2.20;;;;;;;9.73;33.73;98158.08;106279;1266;99245;31
2022/02/19 11:49:26;;;;;;;3.50;1.60;;;;;;;9.93;34.24;98150.20;105657;1279;108130;-69
2022/02/19 11:52:06;;;;;;;8.30;2.40;;;;;;;9.94;34.02;98163.17;105835;1280;99338;-68
2022/02/19 11:55:26;;;;;;;9.50;2.10;;;;;;;9.86;33.35;98155.92;105772;1280;99213;-71
2022/02/19 11:58:01;;;;;;;10.90;2.70;;;;;;;9.81;33.43;98157.35;105790;1280;113097;-71
2022/02/19 12:00:47;;;;;;;10.60;2.40;;;;;;;9.81;33.76;98165.20;105895;1278;96605;-70
2022/02/19 12:03:23;;;;;;;9.80;2.60;;;;;;;9.82;33.73;98157.50;105856;1280;106983;-70
2022/02/19 12:06:23;;;;;;;13.00;2.60;;;;;;;9.81;34.24;98153.80;105830;1279;96641;-68
2022/02/19 12:09:00;;;;;;;8.70;2.90;;;;;;;9.75;33.19;98171.02;105598;1281;99337;-69
2022/02/19 12:11:28;;;;;;;7.60;2.00;;;;;;;9.67;34.17;98169.34;105808;1281;113411;-69
2022/02/19 12:13:58;;;;;;;9.40;2.40;;;;;;;9.66;33.94;98170.45;105771;1278;99217;-68
2022/02/19 12:16:34;;;;;;;8.70;3.20;;;;;;;9.66;32.69;98179.52;105827;1281;108743;-68
2022/02/19 12:19:04;;;;;;;11.70;2.40;;;;;;;9.72;33.78;98175.52;105839;1280;99352;-69
2022/02/19 12:21:35;;;;;;;8.10;2.40;;;;;;;9.82;33.42;98179.78;105670;1279;99292;-69
2022/02/19 12:24:21;;;;;;;5.60;1.90;;;;;;;9.91;33.55;98180.16;105559;1281;112351;-71
2022/02/19 12:27:00;;;;;;;13.20;2.80;;;;;;;9.92;34.45;98175.94;105699;1281;99355;-70
2022/02/19 12:29:30;;;;;;;8.30;2.30;;;;;;;9.89;34.29;98186.69;105731;1281;107746;-70
2022/02/19 12:32:04;;;;;;;12.60;2.60;;;;;;;9.78;34.04;98187.79;105723;1279;97719;-70
2022/02/19 12:34:38;;;;;;;11.50;3.20;;;;;;;9.69;34.35;98190.11;105802;1280;99226;-69
2022/02/19 12:37:10;;;;;;;11.80;2.70;;;;;;;9.62;34.81;98190.28;105744;1280;112737;-70
2022/02/19 12:39:43;;;;;;;9.90;2.60;;;;;;;9.57;34.48;98198.48;105778;1280;99821;-70
2022/02/19 12:42:23;;;;;;;8.30;2.70;;;;;;;9.49;34.24;98201.66;105657;1281;106747;-71
2022/02/19 12:45:10;;;;;;;6.40;1.80;;;;;;;9.44;34.25;98203.23;105707;1280;99147;-69
2022/02/19 12:47:38;;;;;;;9.60;2.10;;;;;;;9.41;34.03;98210.79;105831;1281;99314;-71
2022/02/19 12:50:09;;;;;;;10.40;2.90;;;;;;;9.39;34.41;98213.22;105789;1280;113870;-70
2022/02/19 12:52:37;;;;;;;10.40;2.90;;;;;;;9.41;34.63;98209.39;105773;1279;99269;-71
2022/02/19 12:55:12;;;;;;;12.90;2.90;;;;;;;9.39;34.62;98227.52;105831;1279;107738;-73
2022/02/19 12:57:40;;;;;;;11.30;3.70;;;;;;;9.38;34.47;98234.17;105800;1279;99275;-71
2022/02/19 13:00:08;;;;;;;8.90;2.70;;;;;;;9.35;34.18;98238.19;105765;1278;99500;-69
2022/02/19 13:02:36;;;;;;;12.70;3.00;;;;;;;9.33;34.40;98236.70;105801;1281;112749;-71
2022/02/19 13:05:09;;;;;;;8.30;2.30;;;;;;;9.30;34.09;98248.66;105788;1281;99352;-70
2022/02/19 13:07:37;;;;;;;16.10;3.30;;;;;;;9.26;34.56;98238.15;105790;1280;108958;-70
2022/02/19 13:10:07;;;;;;;8.20;2.20;;;;;;;9.26;34.57;98241.19;105272;1279;99266;-70
2022/02/19 13:12:38;;;;;;;10.10;2.50;;;;;;;9.21;34.46;98252.70;105215;1281;99259;-71
2022/02/19 13:15:09;;;;;;;7.40;2.00;;;;;;;9.19;34.11;98265.95;105724;1279;113274;-71
2022/02/19 13:17:39;;;;;;;6.30;1.90;;;;;;;9.16;34.04;98272.20;105718;1281;98374;-71
2022/02/19 13:20:10;;;;;;;13.00;3.00;;;;;;;9.17;34.40;98266.10;105834;1281;107953;-71
2022/02/19 13:22:40;;;;;;;10.50;2.90;;;;;;;9.18;34.82;98268.51;105732;1281;99366;-72
2022/02/19 13:25:11;;;;;;;10.60;3.00;;;;;;;9.25;34.91;98269.40;105850;1280;99226;-72
2022/02/19 13:27:41;;;;;;;14.50;3.30;;;;;;;9.35;35.01;98272.50;105779;1281;112885;-70
2022/02/19 13:30:17;;;;;;;10.70;3.10;;;;;;;9.43;35.14;98265.30;105746;1281;99193;-71
2022/02/19 13:32:53;;;;;;;10.60;3.00;;;;;;;9.52;35.16;98271.45;105709;1279;107817;-70
2022/02/19 13:35:30;;;;;;;12.30;2.60;;;;;;;9.53;34.66;98275.80;105717;1281;99345;-72
2022/02/19 13:38:00;;;;;;;11.20;2.50;;;;;;;9.51;34.56;98275.27;105701;1281;100041;-73
2022/02/19 13:40:34;;;;;;;10.30;2.50;;;;;;;9.45;34.63;98279.44;105714;1279;112803;-73
2022/02/19 13:43:15;;;;;;;8.30;2.60;;;;;;;9.37;34.18;98287.71;105660;1281;98585;-74
2022/02/19 13:45:45;;;;;;;5.10;1.70;;;;;;;9.27;34.35;98278.75;105734;1280;107936;-73
2022/02/19 13:48:16;;;;;;;11.60;2.60;;;;;;;9.20;34.25;98293.98;105659;1281;99320;-73
2022/02/19 13:50:55;;;;;;;12.60;3.20;;;;;;;9.13;34.46;98290.13;105741;1279;96880;-72
2022/02/19 13:53:33;;;;;;;9.40;2.50;;;;;;;9.14;34.84;98292.55;105658;1280;111885;-71
2022/02/19 13:56:03;;;;;;;14.10;3.30;;;;;;;9.17;35.00;98303.92;105582;1279;99289;-72
2022/02/19 13:58:54;;;;;;;7.30;2.80;;;;;;;9.20;34.95;98302.66;105778;1281;107743;-72
2022/02/19 14:01:22;;;;;;;10.10;3.00;;;;;;;9.25;34.84;98310.77;105796;1280;98473;-67
2022/02/19 14:03:57;;;;;;;10.00;2.80;;;;;;;9.30;35.02;98310.42;105770;1280;99352;-72
2022/02/19 14:06:37;;;;;;;6.40;2.60;;;;;;;9.31;34.64;98316.84;105709;1281;112743;-75
2022/02/19 14:09:21;;;;;;;13.70;4.30;;;;;;;9.29;35.00;98317.91;105749;1281;99415;-73
2022/02/19 14:11:56;;;;;;;11.60;3.20;;;;;;;9.24;35.13;98323.41;105849;1280;107775;-71
2022/02/19 14:14:26;;;;;;;9.50;2.90;;;;;;;9.20;35.07;98329.02;105763;1280;99340;-70
2022/02/19 14:17:13;;;;;;;12.30;3.50;;;;;;;9.13;35.17;98333.70;105834;1281;96655;-71
2022/02/19 14:19:56;;;;;;;13.40;3.20;;;;;;;9.08;35.03;98339.16;105852;1281;112719;-72
2022/02/19 14:22:39;;;;;;;9.70;2.90;;;;;;;9.00;34.93;98345.29;105832;1280;99435;-71
2022/02/19 14:25:13;;;;;;;15.00;3.40;;;;;;;8.95;34.93;98345.14;105831;1279;107791;-72
2022/02/19 14:27:47;;;;;;;11.40;2.90;;;;;;;8.90;34.93;98345.27;105879;1280;99213;-72
2022/02/19 14:30:18;;;;;;;12.40;3.70;;;;;;;8.85;35.11;98355.27;105814;1280;99948;-73
2022/02/19 14:32:46;;;;;;;12.60;3.10;;;;;;;8.86;35.16;98356.80;105890;1281;112774;-72
2022/02/19 14:35:17;;;;;;;10.60;3.00;;;;;;;8.88;35.02;98353.81;105871;1279;99251;-73
2022/02/19 14:37:45;;;;;;;12.90;3.60;;;;;;;8.95;35.43;98349.39;105842;1280;107949;-74
2022/02/19 14:40:14;;;;;;;15.80;3.50;;;;;;;9.04;35.44;98355.73;105846;1279;99285;-75
2022/02/19 14:42:42;;;;;;;15.30;4.70;;;;;;;9.13;35.53;98361.11;105942;1281;99332;-74
2022/02/19 14:45:13;;;;;;;15.20;4.40;;;;;;;9.18;35.44;98359.97;105861;1280;112751;-73
2022/02/19 14:47:40;;;;;;;14.50;4.30;;;;;;;9.17;35.66;98355.97;105861;1279;99208;-73
2022/02/19 14:50:10;;;;;;;10.70;3.10;;;;;;;9.14;35.48;98359.42;105824;1279;107946;-72
2022/02/19 14:52:38;;;;;;;14.00;3.70;;;;;;;9.07;35.31;98356.94;105756;1279;99359;-72
2022/02/19 14:55:06;;;;;;;8.80;3.00;;;;;;;8.97;35.36;98366.33;105744;1279;99242;-72
2022/02/19 14:57:34;;;;;;;10.30;2.90;;;;;;;8.89;35.34;98365.94;105793;1280;113613;-71
2022/02/19 15:00:05;;;;;;;10.70;3.90;;;;;;;8.83;35.52;98366.58;105839;1279;99077;-71
2022/02/19 15:02:33;;;;;;;10.90;3.00;;;;;;;8.77;35.53;98369.48;105769;1279;106369;-72
2022/02/19 15:05:02;;;;;;;10.50;3.60;;;;;;;8.69;35.63;98372.55;105787;1281;99389;-74
2022/02/19 15:07:42;;;;;;;17.60;3.80;;;;;;;8.62;35.65;98377.86;105737;1279;96748;-73
2022/02/19 15:10:12;;;;;;;12.50;3.10;;;;;;;8.56;35.56;98378.09;105766;1279;113501;-72
2022/02/19 15:12:43;;;;;;;12.60;3.60;;;;;;;8.49;35.63;98379.85;105764;1281;97387;-73
2022/02/19 15:15:13;;;;;;;15.70;3.20;;;;;;;8.46;35.49;98384.46;105815;1279;107840;-71
2022/02/19 15:17:41;;;;;;;16.50;3.90;;;;;;;8.45;35.70;98390.88;105753;1279;99328;-71
2022/02/19 15:20:11;;;;;;;15.30;4.70;;;;;;;8.45;35.85;98393.00;105739;1279;99243;-70
2022/02/19 15:22:38;;;;;;;14.10;3.90;;;;;;;8.46;36.03;98397.35;105740;1279;112657;-69
2022/02/19 15:25:07;;;;;;;15.10;4.30;;;;;;;8.47;36.01;98404.75;105707;1279;99326;-71
2022/02/19 15:27:36;;;;;;;13.50;3.80;;;;;;;8.45;35.88;98410.20;105858;1279;107809;-71
2022/02/19 15:30:04;;;;;;;14.90;4.10;;;;;;;8.41;36.09;98416.45;105866;1279;99233;-72
2022/02/19 15:32:32;;;;;;;13.40;3.70;;;;;;;8.38;36.04;98422.21;105782;1279;99147;-73
2022/02/19 15:35:00;;;;;;;11.80;3.70;;;;;;;8.32;36.10;98431.59;105156;1281;655736;-72
2022/02/19 15:37:29;;;;;;;14.10;4.00;;;;;;;8.27;36.07;98436.23;105739;1279;99214;-75
2022/02/19 15:39:57;;;;;;;14.70;4.60;;;;;;;8.21;36.04;98441.55;105853;1279;107749;-74
2022/02/19 15:42:31;;;;;;;16.60;4.40;;;;;;;8.18;36.10;98442.19;105740;1279;99433;-74
2022/02/19 15:44:59;;;;;;;19.70;5.20;;;;;;;8.15;36.38;98450.52;105733;1279;99215;-73
2022/02/19 15:47:28;;;;;;;17.50;4.60;;;;;;;8.11;36.29;98448.68;105694;1278;112115;-70
2022/02/19 15:49:56;;;;;;;19.00;5.30;;;;;;;8.06;36.32;98455.41;105748;1279;99239;-72
2022/02/19 15:52:25;;;;;;;18.70;5.00;;;;;;;7.99;36.59;98460.33;105692;1279;107849;-70
2022/02/19 15:54:53;;;;;;;19.90;5.40;;;;;;;7.92;36.52;98464.70;105676;1279;97586;-71
2022/02/19 15:57:21;;;;;;;16.20;4.70;;;;;;;7.85;36.76;98462.36;105678;1279;99827;-73
2022/02/19 15:59:49;;;;;;;15.40;4.50;;;;;;;7.79;36.55;98481.53;105550;1279;112728;-72
2022/02/19 16:02:16;;;;;;;13.90;3.50;;;;;;;7.73;36.70;98487.23;105669;1280;99340;-70
2022/02/19 16:04:44;;;;;;;12.70;3.70;;;;;;;7.67;36.85;98487.79;105732;1279;107597;-71
2022/02/19 16:07:12;;;;;;;14.60;4.00;;;;;;;7.61;36.97;98494.55;105762;1279;99382;-71
2022/02/19 16:09:40;;;;;;;16.30;4.20;;;;;;;7.55;36.97;98500.45;105851;1279;99240;-71
2022/02/19 16:12:09;;;;;;;13.30;4.20;;;;;;;7.49;37.05;98504.91;105793;1279;112652;-72
2022/02/19 16:14:37;;;;;;;13.90;4.40;;;;;;;7.43;37.13;98511.84;105863;1279;99068;-73
2022/02/19 16:17:05;;;;;;;13.90;4.00;;;;;;;7.38;36.92;98518.35;105698;1279;109200;-73
2022/02/19 16:19:32;;;;;;;18.10;4.20;;;;;;;7.34;36.87;98520.63;105774;1279;97751;-73
2022/02/19 16:22:05;;;;;;;18.20;4.70;;;;;;;7.31;36.91;98528.73;105647;1280;97664;-70
2022/02/19 16:24:33;;;;;;;16.20;5.30;;;;;;;7.26;37.25;98533.61;105828;1279;112390;-71
2022/02/19 16:27:02;;;;;;;19.00;5.40;;;;;;;7.23;37.05;98540.73;105744;1279;96749;-71
2022/02/19 16:29:29;;;;;;;19.80;5.80;;;;;;;7.17;37.70;98537.90;105719;1279;107591;-70
2022/02/19 16:31:57;;;;;;;19.40;5.20;;;;;;;7.11;37.53;98543.25;105819;1279;99357;-71
2022/02/19 16:34:25;;;;;;;18.10;5.00;;;;;;;7.07;37.64;98548.30;105802;1279;98002;-72
2022/02/19 16:36:54;;;;;;;19.70;5.10;;;;;;;7.03;37.54;98552.61;105827;1279;112523;-70
2022/02/19 16:39:22;;;;;;;17.80;5.40;;;;;;;7.00;37.47;98557.04;105795;1281;99270;-71
2022/02/19 16:41:50;;;;;;;20.60;5.70;;;;;;;6.97;37.42;98559.70;105714;1279;107731;-71
2022/02/19 16:44:18;;;;;;;17.90;5.20;;;;;;;6.93;37.96;98564.91;105782;1279;97643;-72
2022/02/19 16:46:46;;;;;;;20.20;5.00;;;;;;;6.90;38.13;98571.99;105757;1278;99341;-70
2022/02/19 16:49:14;;;;;;;18.90;5.10;;;;;;;6.88;37.71;98582.69;105772;1279;113371;-72
2022/02/19 16:51:42;;;;;;;21.70;5.90;;;;;;;6.86;37.99;98587.42;105818;1279;99256;-71
2022/02/19 16:54:11;;;;;;;18.40;5.90;;;;;;;6.81;38.34;98596.13;105807;1279;107811;-72
2022/02/19 16:56:39;;;;;;;20.40;6.90;;;;;;;6.79;37.78;98603.19;105815;1279;100687;-70
2022/02/19 16:59:09;;;;;;;21.90;6.30;;;;;;;6.77;38.11;98615.12;105900;1277;99342;-71
2022/02/19 17:01:37;;;;;;;21.80;8.20;;;;;;;6.74;37.84;98619.49;105872;1278;112826;-69
2022/02/19 17:04:05;;;;;;;21.40;7.20;;;;;;;6.72;38.00;98626.02;105798;1279;99141;-73
2022/02/19 17:06:32;;;;;;;21.00;6.70;;;;;;;6.67;38.02;98634.95;105919;1277;107487;-72
2022/02/19 17:09:02;;;;;;;24.60;7.40;;;;;;;6.62;38.32;98645.83;105817;1279;98170;-70
2022/02/19 17:11:30;;;;;;;22.60;7.00;;;;;;;6.57;38.32;98653.02;105683;1278;100065;-71
2022/02/19 17:13:58;;;;;;;19.60;5.20;;;;;;;6.51;38.70;98658.14;105841;1279;112766;-71
2022/02/19 17:16:26;;;;;;;19.30;5.40;;;;;;;6.44;39.23;98665.66;105864;1277;97943;-71
2022/02/19 17:18:54;;;;;;;18.00;5.10;;;;;;;6.37;38.68;98658.98;105852;1278;107630;-72
2022/02/19 17:21:22;;;;;;;17.10;4.90;;;;;;;6.33;38.58;98662.24;105895;1279;99274;-71
2022/02/19 17:23:51;;;;;;;18.20;5.40;;;;;;;6.28;39.07;98664.66;105836;1279;98950;-73
2022/02/19 17:26:20;;;;;;;17.50;4.80;;;;;;;6.22;40.42;98671.69;105761;1278;112968;-72
2022/02/19 17:28:49;;;;;;;14.00;4.70;;;;;;;6.18;39.59;98672.16;105818;1277;99231;-70
2022/02/19 17:31:16;;;;;;;17.30;5.00;;;;;;;6.13;39.57;98675.76;105736;1279;107674;-70
2022/02/19 17:33:44;;;;;;;15.80;4.40;;;;;;;6.10;39.08;98676.33;105896;1277;99221;-69
2022/02/19 17:36:12;;;;;;;16.50;4.10;;;;;;;6.06;40.43;98678.48;105965;1277;99249;-71
2022/02/19 17:38:40;;;;;;;15.60;4.80;;;;;;;6.01;39.55;98680.52;105966;1277;112721;-72
2022/02/19 17:41:08;;;;;;;13.60;4.60;;;;;;;5.98;39.51;98677.00;105954;1278;99412;-72
2022/02/19 17:43:37;;;;;;;17.90;4.80;;;;;;;5.94;39.59;98675.42;105958;1279;107627;-73
2022/02/19 17:46:05;;;;;;;16.70;5.00;;;;;;;5.92;39.85;98675.77;106018;1277;99330;-70
2022/02/19 17:48:34;;;;;;;18.00;5.70;;;;;;;5.90;40.17;98677.27;105993;1279;96633;-68
2022/02/19 17:51:02;;;;;;;19.90;5.80;;;;;;;5.86;39.77;98676.13;106012;1277;111613;-70
2022/02/19 17:53:30;;;;;;;15.70;5.40;;;;;;;5.84;39.50;98680.31;105950;1277;99327;-70
2022/02/19 17:55:58;;;;;;;17.00;5.40;;;;;;;5.82;40.20;98681.65;105903;1279;107749;-72
2022/02/19 17:58:26;;;;;;;18.00;5.80;;;;;;;5.79;39.76;98685.70;105938;1279;99316;-72
2022/02/19 18:00:54;;;;;;;17.70;5.80;;;;;;;5.76;40.03;98691.31;105929;1279;99205;-72
2022/02/19 18:03:23;;;;;;;19.90;5.80;;;;;;;5.72;39.80;98699.82;105894;1279;112858;-72
2022/02/19 18:05:51;;;;;;;22.30;6.40;;;;;;;5.68;40.20;98702.02;105951;1279;99234;-73
2022/02/19 18:08:19;;;;;;;21.40;6.70;;;;;;;5.63;40.01;98706.63;105961;1277;107722;-71
2022/02/19 18:10:47;;;;;;;23.50;7.10;;;;;;;5.60;39.84;98709.30;106005;1277;99253;-68
2022/02/19 18:13:16;;;;;;;22.40;7.20;;;;;;;5.59;39.83;98715.52;105986;1277;100314;-74
2022/02/19 18:15:44;;;;;;;22.10;7.20;;;;;;;5.58;39.72;98715.23;106019;1277;113303;-71
2022/02/19 18:18:12;;;;;;;24.60;7.50;;;;;;;5.59;39.70;98719.23;105987;1277;97935;-72
2022/02/19 18:20:40;;;;;;;23.10;7.50;;;;;;;5.58;39.64;98724.04;105833;1277;107534;-71
2022/02/19 18:23:08;;;;;;;24.50;6.60;;;;;;;5.56;40.03;98724.11;105822;1277;97833;-70
2022/02/19 18:25:38;;;;;;;25.60;7.70;;;;;;;5.54;39.88;98723.20;105756;1278;99340;-71
2022/02/19 18:28:07;;;;;;;18.50;6.00;;;;;;;5.52;40.17;98724.20;105947;1277;112324;-69
2022/02/19 18:30:35;;;;;;;19.50;5.70;;;;;;;5.49;40.08;98722.92;105971;1277;99333;-72
2022/02/19 18:33:03;;;;;;;20.40;6.10;;;;;;;5.49;39.94;98729.42;105864;1277;107242;-71
2022/02/19 18:35:31;;;;;;;22.90;6.80;;;;;;;5.48;40.08;98727.73;105920;1277;97946;-72
2022/02/19 18:37:58;;;;;;;22.60;7.00;;;;;;;5.49;40.04;98731.07;105928;1277;99236;-72
2022/02/19 18:40:27;;;;;;;24.80;7.70;;;;;;;5.48;40.16;98736.39;105924;1277;112477;-71
2022/02/19 18:42:55;;;;;;;22.50;7.10;;;;;;;5.46;40.20;98737.57;105959;1277;99323;-72
2022/02/19 18:45:43;;;;;;;22.70;6.80;;;;;;;5.42;40.25;98740.73;105943;1277;107630;-71
2022/02/19 18:48:11;;;;;;;22.50;6.70;;;;;;;5.41;40.34;98748.02;105762;1279;97828;-70
2022/02/19 18:50:39;;;;;;;21.60;7.00;;;;;;;5.38;40.32;98751.52;105793;1279;99261;-71
2022/02/19 18:53:08;;;;;;;27.50;8.40;;;;;;;5.35;40.45;98754.15;105857;1278;112821;-71
2022/02/19 18:55:36;;;;;;;29.70;8.60;;;;;;;5.32;40.59;98760.27;105888;1277;96544;-71
2022/02/19 18:58:07;;;;;;;28.30;8.80;;;;;;;5.30;40.62;98763.38;105966;1277;107739;-71
2022/02/19 19:00:36;;;;;;;29.00;10.50;;;;;;;5.29;40.66;98764.73;105951;1277;96580;-72
2022/02/19 19:03:09;;;;;;;31.10;10.40;;;;;;;5.27;40.74;98766.91;105985;1279;99317;-71
2022/02/19 19:05:37;;;;;;;30.10;10.20;;;;;;;5.24;40.75;98768.66;105976;1277;112612;-71
2022/02/19 19:08:06;;;;;;;27.60;10.30;;;;;;;5.20;40.77;98772.39;106021;1277;97591;-72
2022/02/19 19:10:35;;;;;;;27.70;8.40;;;;;;;5.19;40.89;98773.34;106016;1277;107810;-70
2022/02/19 19:13:03;;;;;;;24.90;8.60;;;;;;;5.16;40.95;98773.83;106002;1277;97998;-72
2022/02/19 19:15:32;;;;;;;24.80;8.30;;;;;;;5.12;41.09;98778.98;105914;1277;99223;-71
2022/02/19 19:18:01;;;;;;;23.60;8.30;;;;;;;5.10;41.06;98778.89;105868;1278;112711;-70
2022/02/19 19:20:30;;;;;;;24.40;7.80;;;;;;;5.09;41.12;98782.85;105947;1277;99349;-70
2022/02/19 19:22:58;;;;;;;23.70;7.50;;;;;;;5.08;41.17;98783.92;105955;1277;108828;-70
2022/02/19 19:25:27;;;;;;;24.50;7.00;;;;;;;5.07;41.17;98782.04;105886;1277;99259;-71
2022/02/19 19:27:55;;;;;;;24.40;7.20;;;;;;;5.06;41.26;98784.58;105797;1277;99272;-71
2022/02/19 19:30:23;;;;;;;21.80;6.30;;;;;;;5.04;41.35;98784.66;105876;1279;114054;-71
2022/02/19 19:32:51;;;;;;;21.40;6.80;;;;;;;5.03;41.42;98782.44;105909;1277;96571;-68
2022/02/19 19:35:39;;;;;;;21.60;6.40;;;;;;;5.01;41.49;98786.07;105897;1279;108062;-70
2022/02/19 19:38:08;;;;;;;21.90;6.40;;;;;;;5.00;41.67;98790.89;105971;1277;99298;-73
2022/02/19 19:40:38;;;;;;;21.40;5.80;;;;;;;4.98;41.61;98793.79;105967;1278;99180;-73
2022/02/19 19:43:06;;;;;;;20.40;6.20;;;;;;;4.96;41.78;98796.52;105998;1277;112694;-73
2022/02/19 19:45:34;;;;;;;21.20;6.30;;;;;;;4.96;41.79;98800.20;105967;1277;99260;-72
2022/02/19 19:48:02;;;;;;;20.90;6.50;;;;;;;4.94;42.10;98803.83;105938;1277;107718;-71
2022/02/19 19:50:31;;;;;;;24.10;7.50;;;;;;;4.93;42.02;98808.10;105973;1278;99250;-71
2022/02/19 19:52:58;;;;;;;27.10;8.80;;;;;;;4.91;41.98;98815.92;105956;1279;99106;-71
2022/02/19 19:55:27;;;;;;;23.90;8.30;;;;;;;4.90;42.22;98822.46;105849;1279;112803;-70
2022/02/19 19:57:54;;;;;;;21.60;8.20;;;;;;;4.90;41.98;98828.67;105838;1277;99101;-71
2022/02/19 20:00:23;;;;;;;25.00;8.10;;;;;;;4.88;42.52;98829.48;105934;1277;106713;-71
2022/02/19 20:02:51;;;;;;;26.70;8.60;;;;;;;4.84;42.30;98833.02;105961;1278;99328;-72
2022/02/19 20:05:19;;;;;;;27.60;8.30;;;;;;;4.80;42.26;98835.16;105820;1277;98281;-70
2022/02/19 20:07:47;;;;;;;24.30;7.50;;;;;;;4.77;42.33;98841.81;105799;1277;112871;-72
2022/02/19 20:10:15;;;;;;;23.20;7.50;;;;;;;4.74;42.44;98844.56;105910;1278;96622;-73
2022/02/19 20:12:43;;;;;;;23.50;7.80;;;;;;;4.71;42.64;98848.41;105835;1279;107796;-74
2022/02/19 20:15:13;;;;;;;23.20;7.40;;;;;;;4.67;42.63;98846.70;105790;1277;99372;-71
2022/02/19 20:17:43;;;;;;;25.50;7.90;;;;;;;4.63;42.61;98845.70;105809;1279;99257;-73
2022/02/19 20:20:12;;;;;;;25.00;8.00;;;;;;;4.57;42.86;98848.11;105865;1278;114275;-73
2022/02/19 20:22:41;;;;;;;25.40;8.00;;;;;;;4.52;42.81;98857.86;105980;1277;99203;-72
2022/02/19 20:25:09;;;;;;;26.20;8.40;;;;;;;4.49;42.78;98862.55;105896;1277;107732;-72
2022/02/19 20:27:39;;;;;;;26.90;9.00;;;;;;;4.47;43.01;98864.77;105940;1277;97945;-71
2022/02/19 20:30:09;;;;;;;26.40;9.20;;;;;;;4.42;43.16;98869.75;105880;1277;99330;-70
2022/02/19 20:32:38;;;;;;;27.50;9.40;;;;;;;4.38;42.98;98875.25;105845;1278;112766;-70
2022/02/19 20:35:07;;;;;;;30.20;10.60;;;;;;;4.35;43.02;98880.09;105902;1277;99199;-72
2022/02/19 20:37:37;;;;;;;25.90;8.40;;;;;;;4.35;43.01;98880.83;105895;1277;106555;-71
2022/02/19 20:40:09;;;;;;;27.90;9.30;;;;;;;4.34;43.07;98882.79;105620;1279;99308;-71
2022/02/19 20:42:39;;;;;;;29.40;10.20;;;;;;;4.31;43.00;98885.57;105911;1279;97157;-72
2022/02/19 20:45:09;;;;;;;26.50;8.70;;;;;;;4.30;42.92;98887.91;105867;1277;112841;-73
2022/02/19 20:47:38;;;;;;;23.60;8.50;;;;;;;4.30;42.93;98894.40;105829;1279;101137;-72
2022/02/19 20:50:08;;;;;;;28.10;9.70;;;;;;;4.27;42.85;98896.31;105907;1279;107880;-72
2022/02/19 20:52:37;;;;;;;23.00;7.90;;;;;;;4.24;43.04;98893.47;105710;1279;97254;-72
2022/02/19 20:55:06;;;;;;;24.60;8.70;;;;;;;4.22;42.77;98892.53;105900;1279;99961;-72
2022/02/19 20:57:34;;;;;;;25.60;8.80;;;;;;;4.22;43.12;98902.19;105881;1279;112348;-72
2022/02/19 21:00:06;;;;;;;24.50;8.90;;;;;;;4.20;43.09;98903.32;105895;1277;97257;-73
2022/02/19 21:02:34;;;;;;;24.20;8.50;;;;;;;4.20;43.14;98908.39;105947;1277;107907;-73
2022/02/19 21:05:03;;;;;;;26.00;8.60;;;;;;;4.17;43.26;98909.42;105868;1277;97381;-72
2022/02/19 21:07:31;;;;;;;27.30;9.50;;;;;;;4.14;43.15;98917.10;106057;1277;96664;-73
2022/02/19 21:09:58;;;;;;;25.80;8.80;;;;;;;4.13;43.10;98916.27;105870;1278;113744;-73
2022/02/19 21:12:27;;;;;;;26.20;8.50;;;;;;;4.12;43.14;98923.52;105891;1277;98859;-73
2022/02/19 21:14:55;;;;;;;26.80;8.80;;;;;;;4.14;43.11;98926.95;106005;1277;107903;-72
2022/02/19 21:17:24;;;;;;;27.80;8.40;;;;;;;4.15;43.37;98924.96;105868;1277;99272;-72
2022/02/19 21:19:52;;;;;;;26.60;8.70;;;;;;;4.15;43.15;98926.55;105986;1277;97457;-74
2022/02/19 21:22:20;;;;;;;24.40;8.30;;;;;;;4.15;43.16;98932.49;105941;1278;112791;-72
2022/02/19 21:24:48;;;;;;;21.90;7.20;;;;;;;4.16;43.27;98929.64;106008;1279;99344;-71
2022/02/19 21:27:16;;;;;;;24.60;7.70;;;;;;;4.18;43.33;98927.12;106007;1277;106864;-73
2022/02/19 21:29:47;;;;;;;25.70;8.30;;;;;;;4.17;43.44;98926.28;105932;1277;100084;-71
2022/02/19 21:32:15;;;;;;;24.00;7.30;;;;;;;4.17;43.33;98919.78;105889;1277;99369;-73
2022/02/19 21:34:44;;;;;;;23.50;7.60;;;;;;;4.16;43.54;98920.17;105863;1277;112783;-73
2022/02/19 21:37:14;;;;;;;19.80;6.60;;;;;;;4.15;43.32;98916.70;105792;1277;96654;-72
2022/02/19 21:39:42;;;;;;;22.00;6.60;;;;;;;4.14;43.32;98912.36;105952;1277;107799;-72
2022/02/19 21:42:10;;;;;;;25.10;7.10;;;;;;;4.10;43.54;98918.02;105988;1277;99667;-71
2022/02/19 21:44:41;;;;;;;22.80;7.50;;;;;;;4.08;43.63;98915.50;105932;1277;99337;-72
2022/02/19 21:47:11;;;;;;;23.10;7.10;;;;;;;4.07;43.53;98922.54;105909;1278;114438;-71
2022/02/19 21:49:41;;;;;;;24.10;7.40;;;;;;;4.05;43.70;98918.78;106051;1277;97859;-71
2022/02/19 21:52:10;;;;;;;22.20;7.30;;;;;;;4.04;43.66;98916.77;105918;1277;105813;-71
2022/02/19 21:54:37;;;;;;;28.10;7.60;;;;;;;4.04;43.44;98916.77;105884;1279;98371;-72
2022/02/19 21:57:07;;;;;;;24.30;7.80;;;;;;;4.03;43.44;98920.82;105908;1277;97951;-70
2022/02/19 21:59:35;;;;;;;24.00;7.00;;;;;;;4.02;43.71;98923.83;105895;1278;112971;-71
2022/02/19 22:02:06;;;;;;;20.90;6.80;;;;;;;4.00;43.69;98924.13;105919;1279;99356;-72
2022/02/19 22:04:35;;;;;;;23.20;7.00;;;;;;;3.99;43.59;98925.40;105939;1279;107105;-72
2022/02/19 22:07:04;;;;;;;23.20;6.70;;;;;;;3.98;43.65;98922.98;105935;1279;99291;-70
2022/02/19 22:09:32;;;;;;;20.10;6.30;;;;;;;3.96;43.62;98925.16;105903;1279;96657;-71
2022/02/19 22:12:01;;;;;;;22.50;7.70;;;;;;;3.98;43.61;98926.34;105856;1277;112815;-72
2022/02/19 22:14:28;;;;;;;25.40;7.70;;;;;;;3.97;43.56;98928.28;105901;1277;98016;-71
2022/02/19 22:16:57;;;;;;;20.60;7.60;;;;;;;3.97;43.62;98936.38;105733;1279;107785;-73
2022/02/19 22:19:25;;;;;;;25.00;6.50;;;;;;;3.96;43.68;98935.34;105909;1277;99346;-70
2022/02/19 22:21:53;;;;;;;20.20;6.20;;;;;;;3.96;43.74;98935.02;105948;1279;99326;-73
2022/02/19 22:24:21;;;;;;;21.80;6.30;;;;;;;3.95;43.80;98929.29;106032;1277;112701;-72
2022/02/19 22:26:49;;;;;;;18.60;6.50;;;;;;;3.94;43.64;98927.75;105941;1277;96644;-73
2022/02/19 22:29:20;;;;;;;21.70;6.10;;;;;;;3.92;43.94;98923.09;105859;1278;107789;-71
2022/02/19 22:31:48;;;;;;;20.90;6.80;;;;;;;3.91;43.88;98920.85;105870;1277;99328;-72
2022/02/19 22:34:17;;;;;;;26.50;8.10;;;;;;;3.90;43.94;98924.07;105927;1277;100961;-71
2022/02/19 22:36:45;;;;;;;23.10;6.50;;;;;;;3.87;43.84;98924.33;105918;1277;112856;-72
2022/02/19 22:39:12;;;;;;;22.60;6.70;;;;;;;3.87;44.09;98926.48;105893;1277;96882;-72
2022/02/19 22:41:40;;;;;;;25.50;8.30;;;;;;;3.88;43.98;98930.65;105870;1277;107897;-71
2022/02/19 22:44:08;;;;;;;21.20;6.20;;;;;;;3.86;43.96;98927.02;105941;1278;99288;-72
2022/02/19 22:46:36;;;;;;;24.50;8.30;;;;;;;3.85;44.03;98926.91;106008;1278;99296;-73
2022/02/19 22:49:04;;;;;;;24.90;8.00;;;;;;;3.83;43.98;98926.15;105862;1279;114058;-73
2022/02/19 22:51:33;;;;;;;23.00;8.00;;;;;;;3.81;44.10;98925.52;105890;1281;96631;-71
2022/02/19 22:54:01;;;;;;;29.40;9.10;;;;;;;3.79;44.22;98926.35;105795;1281;107616;-72
2022/02/19 22:56:30;;;;;;;23.90;8.50;;;;;;;3.75;43.99;98928.98;105764;1279;96728;-73
2022/02/19 22:58:57;;;;;;;27.00;8.20;;;;;;;3.73;44.19;98929.23;105911;1279;99756;-72
2022/02/19 23:01:31;;;;;;;23.90;7.50;;;;;;;3.70;44.06;98925.33;105814;1280;112997;-73
2022/02/19 23:06:49;;;;;;;24.50;7.20;;;;;;;3.67;44.53;98925.13;105823;1279;106770;-72
2022/02/19 23:09:19;;;;;;;21.80;7.30;;;;;;;3.64;44.40;98921.07;105880;1279;99212;-72
2022/02/19 23:11:47;;;;;;;20.90;6.20;;;;;;;3.63;44.43;98924.62;105893;1279;99251;-73
2022/02/19 23:14:15;;;;;;;19.00;6.20;;;;;;;3.60;44.61;98921.95;106037;1277;112490;-69
2022/02/19 23:16:43;;;;;;;24.00;6.90;;;;;;;3.57;44.55;98927.66;105896;1278;99256;-72
2022/02/19 23:19:11;;;;;;;24.30;6.50;;;;;;;3.56;44.55;98929.29;106054;1277;107959;-73
2022/02/19 23:21:40;;;;;;;18.30;5.90;;;;;;;3.58;44.58;98928.17;105838;1278;99251;-74
2022/02/19 23:24:09;;;;;;;20.40;5.50;;;;;;;3.57;44.60;98927.33;105978;1277;96525;-72